sensor_id;sensor_type;location;lat;lon;timestamp;P1;durP1;ratioP1;P2;durP2;ratioP2
795;SDS011;381;48.770;9.188;2023-07-02T00:00:53;6.30;;;5.80;;
795;SDS011;381;48.770;9.188;2023-07-02T00:05:55;5.60;;;5.20;;
795;SDS011;381;48.770;9.188;2023-07-02T00:10:59;6.37;;;5.57;;
795;SDS011;381;48.770;9.188;2023-07-02T00:16:01;5.47;;;4.97;;
795;SDS011;381;48.770;9.188;2023-07-02T00:21:05;5.73;;;5.33;;
795;SDS011;381;48.770;9.188;2023-07-02T00:26:08;5.70;;;5.40;;
795;SDS011;381;48.770;9.188;2023-07-02T00:31:10;5.23;;;4.93;;
795;SDS011;381;48.770;9.188;2023-07-02T00:36:13;6.93;;;4.60;;
795;SDS011;381;48.770;9.188;2023-07-02T00:41:16;4.70;;;4.40;;
795;SDS011;381;48.770;9.188;2023-07-02T00:46:20;4.90;;;4.50;;
795;SDS011;381;48.770;9.188;2023-07-02T00:51:26;4.13;;;3.90;;
795;SDS011;381;48.770;9.188;2023-07-02T00:56:30;4.50;;;4.20;;
795;SDS011;381;48.770;9.188;2023-07-02T01:01:32;5.10;;;4.80;;
795;SDS011;381;48.770;9.188;2023-07-02T01:06:38;4.70;;;4.40;;
795;SDS011;381;48.770;9.188;2023-07-02T01:11:43;5.30;;;3.40;;
795;SDS011;381;48.770;9.188;2023-07-02T01:16:47;4.20;;;3.90;;
795;SDS011;381;48.770;9.188;2023-07-02T01:21:52;4.13;;;3.83;;
795;SDS011;381;48.770;9.188;2023-07-02T01:26:54;4.33;;;4.03;;
795;SDS011;381;48.770;9.188;2023-07-02T01:31:56;3.87;;;3.67;;
795;SDS011;381;48.770;9.188;2023-07-02T01:37:00;4.23;;;4.00;;
795;SDS011;381;48.770;9.188;2023-07-02T01:42:09;4.00;;;3.70;;
795;SDS011;381;48.770;9.188;2023-07-02T01:47:12;5.70;;;4.00;;
795;SDS011;381;48.770;9.188;2023-07-02T01:52:17;4.13;;;3.83;;
795;SDS011;381;48.770;9.188;2023-07-02T01:57:19;4.03;;;3.50;;
795;SDS011;381;48.770;9.188;2023-07-02T02:02:21;3.97;;;3.77;;
795;SDS011;381;48.770;9.188;2023-07-02T02:07:25;4.13;;;3.83;;
795;SDS011;381;48.770;9.188;2023-07-02T02:12:27;4.07;;;3.77;;
795;SDS011;381;48.770;9.188;2023-07-02T02:17:31;4.30;;;4.10;;
795;SDS011;381;48.770;9.188;2023-07-02T02:22:35;4.20;;;4.00;;
795;SDS011;381;48.770;9.188;2023-07-02T02:27:37;4.40;;;4.10;;
795;SDS011;381;48.770;9.188;2023-07-02T02:32:39;3.90;;;3.60;;
795;SDS011;381;48.770;9.188;2023-07-02T02:37:45;4.47;;;4.10;;
795;SDS011;381;48.770;9.188;2023-07-02T02:42:48;4.73;;;4.27;;
795;SDS011;381;48.770;9.188;2023-07-02T02:47:50;5.00;;;4.70;;
795;SDS011;381;48.770;9.188;2023-07-02T02:52:53;4.20;;;4.00;;
795;SDS011;381;48.770;9.188;2023-07-02T02:57:55;4.37;;;4.07;;
795;SDS011;381;48.770;9.188;2023-07-02T03:02:58;4.50;;;4.30;;
795;SDS011;381;48.770;9.188;2023-07-02T03:08:01;4.60;;;4.20;;
795;SDS011;381;48.770;9.188;2023-07-02T03:13:03;4.30;;;4.00;;
795;SDS011;381;48.770;9.188;2023-07-02T03:18:06;4.37;;;4.07;;
795;SDS011;381;48.770;9.188;2023-07-02T03:23:09;4.50;;;4.20;;
795;SDS011;381;48.770;9.188;2023-07-02T03:28:11;4.00;;;3.70;;
795;SDS011;381;48.770;9.188;2023-07-02T03:33:13;4.47;;;4.13;;
795;SDS011;381;48.770;9.188;2023-07-02T03:38:17;4.80;;;4.50;;
795;SDS011;381;48.770;9.188;2023-07-02T03:43:19;4.67;;;4.27;;
795;SDS011;381;48.770;9.188;2023-07-02T03:48:22;5.03;;;4.63;;
795;SDS011;381;48.770;9.188;2023-07-02T03:53:25;4.37;;;4.07;;
795;SDS011;381;48.770;9.188;2023-07-02T03:58:27;4.87;;;4.57;;
795;SDS011;381;48.770;9.188;2023-07-02T04:03:29;4.83;;;4.43;;
795;SDS011;381;48.770;9.188;2023-07-02T04:08:33;4.63;;;4.33;;
795;SDS011;381;48.770;9.188;2023-07-02T04:13:35;4.73;;;3.70;;
795;SDS011;381;48.770;9.188;2023-07-02T04:18:37;5.57;;;5.10;;
795;SDS011;381;48.770;9.188;2023-07-02T04:23:40;5.40;;;4.50;;
795;SDS011;381;48.770;9.188;2023-07-02T04:28:43;4.80;;;4.40;;
795;SDS011;381;48.770;9.188;2023-07-02T04:33:45;6.13;;;5.43;;
795;SDS011;381;48.770;9.188;2023-07-02T04:38:48;5.27;;;4.77;;
795;SDS011;381;48.770;9.188;2023-07-02T04:43:50;4.57;;;4.17;;
795;SDS011;381;48.770;9.188;2023-07-02T04:48:52;5.63;;;4.43;;
795;SDS011;381;48.770;9.188;2023-07-02T04:53:56;4.70;;;4.30;;
795;SDS011;381;48.770;9.188;2023-07-02T04:58:58;4.83;;;4.53;;
795;SDS011;381;48.770;9.188;2023-07-02T05:04:00;7.00;;;5.53;;
795;SDS011;381;48.770;9.188;2023-07-02T05:09:03;5.07;;;4.63;;
795;SDS011;381;48.770;9.188;2023-07-02T05:14:06;5.10;;;4.50;;
795;SDS011;381;48.770;9.188;2023-07-02T05:19:08;4.30;;;3.90;;
795;SDS011;381;48.770;9.188;2023-07-02T05:24:11;5.80;;;4.40;;
795;SDS011;381;48.770;9.188;2023-07-02T05:29:13;4.10;;;3.80;;
795;SDS011;381;48.770;9.188;2023-07-02T05:34:16;4.70;;;4.30;;
795;SDS011;381;48.770;9.188;2023-07-02T05:39:19;4.93;;;4.43;;
795;SDS011;381;48.770;9.188;2023-07-02T05:44:22;5.40;;;4.87;;
795;SDS011;381;48.770;9.188;2023-07-02T05:49:25;6.10;;;4.87;;
795;SDS011;381;48.770;9.188;2023-07-02T05:54:29;6.40;;;4.67;;
795;SDS011;381;48.770;9.188;2023-07-02T05:59:31;5.93;;;5.13;;
795;SDS011;381;48.770;9.188;2023-07-02T06:04:33;5.67;;;5.17;;
795;SDS011;381;48.770;9.188;2023-07-02T06:09:36;6.40;;;5.60;;
795;SDS011;381;48.770;9.188;2023-07-02T06:14:38;7.80;;;5.53;;
795;SDS011;381;48.770;9.188;2023-07-02T06:19:40;10.23;;;6.80;;
795;SDS011;381;48.770;9.188;2023-07-02T06:24:44;6.83;;;6.20;;
795;SDS011;381;48.770;9.188;2023-07-02T06:29:46;8.50;;;7.70;;
795;SDS011;381;48.770;9.188;2023-07-02T06:34:48;13.17;;;8.43;;
795;SDS011;381;48.770;9.188;2023-07-02T06:39:51;9.67;;;8.73;;
795;SDS011;381;48.770;9.188;2023-07-02T06:44:53;11.67;;;8.70;;
795;SDS011;381;48.770;9.188;2023-07-02T06:49:56;10.40;;;9.40;;
795;SDS011;381;48.770;9.188;2023-07-02T06:54:59;13.20;;;9.87;;
795;SDS011;381;48.770;9.188;2023-07-02T07:00:02;14.97;;;8.77;;
795;SDS011;381;48.770;9.188;2023-07-02T07:05:05;10.17;;;8.70;;
795;SDS011;381;48.770;9.188;2023-07-02T07:10:09;11.20;;;8.73;;
795;SDS011;381;48.770;9.188;2023-07-02T07:15:11;11.63;;;9.30;;
795;SDS011;381;48.770;9.188;2023-07-02T07:20:13;11.90;;;8.97;;
795;SDS011;381;48.770;9.188;2023-07-02T07:25:17;11.93;;;9.63;;
795;SDS011;381;48.770;9.188;2023-07-02T07:30:19;12.67;;;9.77;;
795;SDS011;381;48.770;9.188;2023-07-02T07:35:23;14.43;;;10.90;;
795;SDS011;381;48.770;9.188;2023-07-02T07:40:26;14.20;;;10.57;;
795;SDS011;381;48.770;9.188;2023-07-02T07:45:28;13.40;;;10.10;;
795;SDS011;381;48.770;9.188;2023-07-02T07:50:31;15.40;;;11.43;;
795;SDS011;381;48.770;9.188;2023-07-02T07:55:35;14.93;;;9.50;;
795;SDS011;381;48.770;9.188;2023-07-02T08:00:37;17.07;;;11.90;;
795;SDS011;381;48.770;9.188;2023-07-02T08:05:39;14.87;;;11.43;;
795;SDS011;381;48.770;9.188;2023-07-02T08:10:42;14.83;;;11.33;;
795;SDS011;381;48.770;9.188;2023-07-02T08:15:45;16.40;;;11.93;;
795;SDS011;381;48.770;9.188;2023-07-02T08:20:47;14.97;;;11.27;;
795;SDS011;381;48.770;9.188;2023-07-02T08:25:51;16.47;;;12.60;;
795;SDS011;381;48.770;9.188;2023-07-02T08:30:53;16.40;;;12.10;;
795;SDS011;381;48.770;9.188;2023-07-02T08:35:55;16.20;;;11.80;;
795;SDS011;381;48.770;9.188;2023-07-02T08:40:59;14.70;;;11.67;;
795;SDS011;381;48.770;9.188;2023-07-02T08:46:01;14.10;;;10.57;;
795;SDS011;381;48.770;9.188;2023-07-02T08:51:04;19.27;;;11.63;;
795;SDS011;381;48.770;9.188;2023-07-02T08:56:07;11.93;;;9.67;;
795;SDS011;381;48.770;9.188;2023-07-02T09:01:10;12.87;;;10.27;;
795;SDS011;381;48.770;9.188;2023-07-02T09:06:13;11.17;;;9.73;;
795;SDS011;381;48.770;9.188;2023-07-02T09:11:19;12.20;;;8.43;;
795;SDS011;381;48.770;9.188;2023-07-02T09:16:22;12.50;;;10.30;;
795;SDS011;381;48.770;9.188;2023-07-02T09:21:26;16.93;;;9.23;;
795;SDS011;381;48.770;9.188;2023-07-02T09:26:30;11.17;;;9.73;;
795;SDS011;381;48.770;9.188;2023-07-02T09:31:42;13.20;;;10.30;;
795;SDS011;381;48.770;9.188;2023-07-02T09:36:44;14.43;;;9.63;;
795;SDS011;381;48.770;9.188;2023-07-02T09:41:48;11.30;;;9.90;;
795;SDS011;381;48.770;9.188;2023-07-02T09:46:53;12.30;;;10.03;;
795;SDS011;381;48.770;9.188;2023-07-02T09:52:02;15.13;;;10.23;;
795;SDS011;381;48.770;9.188;2023-07-02T09:57:07;12.23;;;10.17;;
795;SDS011;381;48.770;9.188;2023-07-02T10:02:10;11.90;;;9.67;;
795;SDS011;381;48.770;9.188;2023-07-02T10:07:25;10.00;;;9.00;;
795;SDS011;381;48.770;9.188;2023-07-02T10:12:29;10.73;;;9.57;;
795;SDS011;381;48.770;9.188;2023-07-02T10:17:32;10.57;;;9.50;;
795;SDS011;381;48.770;9.188;2023-07-02T10:22:41;14.43;;;9.80;;
795;SDS011;381;48.770;9.188;2023-07-02T10:27:46;16.27;;;10.80;;
795;SDS011;381;48.770;9.188;2023-07-02T10:32:48;13.60;;;11.80;;
795;SDS011;381;48.770;9.188;2023-07-02T10:37:50;13.47;;;11.30;;
795;SDS011;381;48.770;9.188;2023-07-02T10:42:54;13.20;;;10.17;;
795;SDS011;381;48.770;9.188;2023-07-02T10:47:56;15.23;;;10.50;;
795;SDS011;381;48.770;9.188;2023-07-02T10:52:58;16.77;;;12.87;;
795;SDS011;381;48.770;9.188;2023-07-02T10:58:05;14.47;;;12.03;;
795;SDS011;381;48.770;9.188;2023-07-02T11:03:15;14.27;;;12.13;;
795;SDS011;381;48.770;9.188;2023-07-02T11:08:18;14.00;;;11.43;;
795;SDS011;381;48.770;9.188;2023-07-02T11:13:23;13.90;;;11.60;;
795;SDS011;381;48.770;9.188;2023-07-02T11:18:29;17.23;;;12.47;;
795;SDS011;381;48.770;9.188;2023-07-02T11:23:34;13.97;;;11.57;;
795;SDS011;381;48.770;9.188;2023-07-02T11:28:47;14.63;;;11.77;;
795;SDS011;381;48.770;9.188;2023-07-02T11:33:51;14.67;;;12.20;;
795;SDS011;381;48.770;9.188;2023-07-02T11:38:54;12.70;;;11.40;;
795;SDS011;381;48.770;9.188;2023-07-02T11:43:58;13.30;;;11.10;;
795;SDS011;381;48.770;9.188;2023-07-02T11:49:00;13.47;;;11.13;;
795;SDS011;381;48.770;9.188;2023-07-02T11:54:03;16.17;;;12.43;;
795;SDS011;381;48.770;9.188;2023-07-02T11:59:06;13.37;;;10.80;;
795;SDS011;381;48.770;9.188;2023-07-02T12:04:09;10.87;;;9.73;;
795;SDS011;381;48.770;9.188;2023-07-02T12:09:12;20.97;;;13.27;;
795;SDS011;381;48.770;9.188;2023-07-02T12:14:16;13.47;;;10.57;;
795;SDS011;381;48.770;9.188;2023-07-02T12:19:18;14.20;;;12.43;;
795;SDS011;381;48.770;9.188;2023-07-02T12:24:20;13.63;;;12.10;;
795;SDS011;381;48.770;9.188;2023-07-02T12:29:23;13.37;;;11.97;;
795;SDS011;381;48.770;9.188;2023-07-02T12:34:25;15.10;;;10.73;;
795;SDS011;381;48.770;9.188;2023-07-02T12:39:29;13.40;;;12.00;;
795;SDS011;381;48.770;9.188;2023-07-02T12:44:33;13.27;;;11.93;;
795;SDS011;381;48.770;9.188;2023-07-02T12:49:35;18.60;;;11.93;;
795;SDS011;381;48.770;9.188;2023-07-02T12:54:37;15.87;;;12.30;;
795;SDS011;381;48.770;9.188;2023-07-02T12:59:40;14.17;;;11.50;;
795;SDS011;381;48.770;9.188;2023-07-02T13:04:42;15.30;;;12.67;;
795;SDS011;381;48.770;9.188;2023-07-02T13:09:44;14.77;;;12.57;;
795;SDS011;381;48.770;9.188;2023-07-02T13:14:48;18.23;;;12.03;;
795;SDS011;381;48.770;9.188;2023-07-02T13:19:50;14.63;;;11.90;;
795;SDS011;381;48.770;9.188;2023-07-02T13:24:52;12.77;;;11.47;;
795;SDS011;381;48.770;9.188;2023-07-02T13:29:56;14.70;;;11.77;;
795;SDS011;381;48.770;9.188;2023-07-02T13:34:58;14.70;;;11.93;;
795;SDS011;381;48.770;9.188;2023-07-02T13:40:00;17.20;;;11.63;;
795;SDS011;381;48.770;9.188;2023-07-02T13:45:06;14.47;;;12.23;;
795;SDS011;381;48.770;9.188;2023-07-02T13:50:09;15.90;;;11.20;;
795;SDS011;381;48.770;9.188;2023-07-02T13:55:12;16.90;;;12.73;;
795;SDS011;381;48.770;9.188;2023-07-02T14:00:16;13.70;;;11.40;;
795;SDS011;381;48.770;9.188;2023-07-02T14:05:18;13.40;;;11.23;;
795;SDS011;381;48.770;9.188;2023-07-02T14:10:21;13.23;;;11.20;;
795;SDS011;381;48.770;9.188;2023-07-02T14:15:25;12.30;;;10.57;;
795;SDS011;381;48.770;9.188;2023-07-02T14:20:28;12.77;;;11.33;;
795;SDS011;381;48.770;9.188;2023-07-02T14:25:30;14.20;;;11.90;;
795;SDS011;381;48.770;9.188;2023-07-02T14:30:33;13.93;;;11.70;;
795;SDS011;381;48.770;9.188;2023-07-02T14:35:35;12.83;;;10.23;;
795;SDS011;381;48.770;9.188;2023-07-02T14:40:38;12.67;;;11.10;;
795;SDS011;381;48.770;9.188;2023-07-02T14:45:45;18.83;;;14.23;;
795;SDS011;381;48.770;9.188;2023-07-02T14:50:51;13.10;;;10.50;;
795;SDS011;381;48.770;9.188;2023-07-02T14:55:54;15.20;;;12.20;;
795;SDS011;381;48.770;9.188;2023-07-02T15:00:59;13.47;;;10.83;;
795;SDS011;381;48.770;9.188;2023-07-02T15:06:05;17.00;;;12.23;;
795;SDS011;381;48.770;9.188;2023-07-02T15:11:08;14.87;;;11.87;;
795;SDS011;381;48.770;9.188;2023-07-02T15:16:12;15.67;;;13.00;;
795;SDS011;381;48.770;9.188;2023-07-02T15:21:14;14.23;;;12.17;;
795;SDS011;381;48.770;9.188;2023-07-02T15:26:18;12.63;;;11.17;;
795;SDS011;381;48.770;9.188;2023-07-02T15:31:22;13.80;;;11.70;;
795;SDS011;381;48.770;9.188;2023-07-02T15:36:24;15.87;;;12.07;;
795;SDS011;381;48.770;9.188;2023-07-02T15:41:26;17.63;;;12.20;;
795;SDS011;381;48.770;9.188;2023-07-02T15:46:29;16.30;;;12.60;;
795;SDS011;381;48.770;9.188;2023-07-02T15:51:33;17.80;;;12.57;;
795;SDS011;381;48.770;9.188;2023-07-02T15:56:37;15.27;;;11.43;;
795;SDS011;381;48.770;9.188;2023-07-02T16:01:40;15.13;;;11.00;;
795;SDS011;381;48.770;9.188;2023-07-02T16:06:45;13.47;;;10.17;;
795;SDS011;381;48.770;9.188;2023-07-02T16:11:47;14.97;;;11.93;;
795;SDS011;381;48.770;9.188;2023-07-02T16:16:50;14.83;;;13.23;;
795;SDS011;381;48.770;9.188;2023-07-02T16:21:54;14.00;;;11.77;;
795;SDS011;381;48.770;9.188;2023-07-02T16:26:56;14.40;;;11.80;;
795;SDS011;381;48.770;9.188;2023-07-02T16:32:00;16.40;;;14.20;;
795;SDS011;381;48.770;9.188;2023-07-02T16:37:02;14.00;;;12.20;;
795;SDS011;381;48.770;9.188;2023-07-02T16:42:05;16.10;;;11.93;;
795;SDS011;381;48.770;9.188;2023-07-02T16:47:09;12.93;;;11.00;;
795;SDS011;381;48.770;9.188;2023-07-02T16:52:11;12.80;;;11.47;;
795;SDS011;381;48.770;9.188;2023-07-02T16:57:13;12.13;;;10.83;;
795;SDS011;381;48.770;9.188;2023-07-02T17:02:17;17.03;;;12.87;;
795;SDS011;381;48.770;9.188;2023-07-02T17:07:19;12.07;;;10.97;;
795;SDS011;381;48.770;9.188;2023-07-02T17:12:21;14.63;;;12.50;;
795;SDS011;381;48.770;9.188;2023-07-02T17:17:25;11.07;;;8.77;;
795;SDS011;381;48.770;9.188;2023-07-02T17:22:29;18.00;;;16.00;;
795;SDS011;381;48.770;9.188;2023-07-02T17:27:32;16.87;;;13.03;;
795;SDS011;381;48.770;9.188;2023-07-02T17:32:36;16.17;;;12.43;;
795;SDS011;381;48.770;9.188;2023-07-02T17:37:39;10.97;;;9.87;;
795;SDS011;381;48.770;9.188;2023-07-02T17:42:43;13.03;;;11.47;;
795;SDS011;381;48.770;9.188;2023-07-02T17:47:46;13.00;;;11.30;;
795;SDS011;381;48.770;9.188;2023-07-02T17:52:49;15.73;;;11.97;;
795;SDS011;381;48.770;9.188;2023-07-02T17:57:51;15.57;;;11.50;;
795;SDS011;381;48.770;9.188;2023-07-02T18:02:54;13.93;;;11.27;;
795;SDS011;381;48.770;9.188;2023-07-02T18:07:56;13.93;;;11.30;;
795;SDS011;381;48.770;9.188;2023-07-02T18:12:58;17.50;;;12.33;;
795;SDS011;381;48.770;9.188;2023-07-02T18:18:02;16.50;;;12.93;;
795;SDS011;381;48.770;9.188;2023-07-02T18:23:04;16.73;;;11.70;;
795;SDS011;381;48.770;9.188;2023-07-02T18:28:08;17.63;;;12.53;;
795;SDS011;381;48.770;9.188;2023-07-02T18:33:13;18.00;;;13.60;;
795;SDS011;381;48.770;9.188;2023-07-02T18:38:15;19.70;;;12.77;;
795;SDS011;381;48.770;9.188;2023-07-02T18:43:18;20.30;;;12.90;;
795;SDS011;381;48.770;9.188;2023-07-02T18:48:22;17.20;;;12.47;;
795;SDS011;381;48.770;9.188;2023-07-02T18:53:26;20.43;;;12.57;;
795;SDS011;381;48.770;9.188;2023-07-02T18:58:28;16.83;;;12.80;;
795;SDS011;381;48.770;9.188;2023-07-02T19:03:33;17.03;;;12.33;;
795;SDS011;381;48.770;9.188;2023-07-02T19:08:36;19.17;;;12.27;;
795;SDS011;381;48.770;9.188;2023-07-02T19:13:38;15.30;;;12.03;;
795;SDS011;381;48.770;9.188;2023-07-02T19:18:42;14.77;;;11.70;;
795;SDS011;381;48.770;9.188;2023-07-02T19:23:44;16.07;;;12.10;;
795;SDS011;381;48.770;9.188;2023-07-02T19:28:46;15.40;;;11.70;;
795;SDS011;381;48.770;9.188;2023-07-02T19:33:49;17.67;;;12.30;;
795;SDS011;381;48.770;9.188;2023-07-02T19:38:52;18.37;;;12.50;;
795;SDS011;381;48.770;9.188;2023-07-02T19:43:54;18.10;;;13.00;;
795;SDS011;381;48.770;9.188;2023-07-02T19:48:58;17.57;;;12.80;;
795;SDS011;381;48.770;9.188;2023-07-02T19:54:00;16.30;;;12.57;;
795;SDS011;381;48.770;9.188;2023-07-02T19:59:03;17.33;;;13.33;;
795;SDS011;381;48.770;9.188;2023-07-02T20:04:07;16.63;;;11.90;;
795;SDS011;381;48.770;9.188;2023-07-02T20:09:21;19.47;;;13.40;;
795;SDS011;381;48.770;9.188;2023-07-02T20:14:23;14.57;;;11.67;;
795;SDS011;381;48.770;9.188;2023-07-02T20:19:27;17.60;;;13.20;;
795;SDS011;381;48.770;9.188;2023-07-02T20:24:30;16.33;;;12.27;;
795;SDS011;381;48.770;9.188;2023-07-02T20:29:32;17.40;;;13.40;;
795;SDS011;381;48.770;9.188;2023-07-02T20:34:35;16.17;;;12.50;;
795;SDS011;381;48.770;9.188;2023-07-02T20:39:38;20.13;;;12.93;;
795;SDS011;381;48.770;9.188;2023-07-02T20:44:43;19.93;;;13.40;;
795;SDS011;381;48.770;9.188;2023-07-02T20:49:48;18.47;;;13.40;;
795;SDS011;381;48.770;9.188;2023-07-02T20:54:52;15.00;;;12.40;;
795;SDS011;381;48.770;9.188;2023-07-02T20:59:54;21.47;;;13.07;;
795;SDS011;381;48.770;9.188;2023-07-02T21:04:59;18.20;;;12.47;;
795;SDS011;381;48.770;9.188;2023-07-02T21:10:02;16.70;;;13.10;;
795;SDS011;381;48.770;9.188;2023-07-02T21:15:05;18.77;;;12.97;;
795;SDS011;381;48.770;9.188;2023-07-02T21:20:10;17.07;;;11.80;;
795;SDS011;381;48.770;9.188;2023-07-02T21:25:13;18.13;;;12.70;;
795;SDS011;381;48.770;9.188;2023-07-02T21:30:16;13.27;;;11.20;;
795;SDS011;381;48.770;9.188;2023-07-02T21:35:19;15.50;;;12.17;;
795;SDS011;381;48.770;9.188;2023-07-02T21:40:21;17.90;;;11.70;;
795;SDS011;381;48.770;9.188;2023-07-02T21:45:24;15.50;;;11.73;;
795;SDS011;381;48.770;9.188;2023-07-02T21:50:27;14.00;;;11.07;;
795;SDS011;381;48.770;9.188;2023-07-02T21:55:29;14.70;;;11.90;;
795;SDS011;381;48.770;9.188;2023-07-02T22:00:33;15.03;;;12.97;;
795;SDS011;381;48.770;9.188;2023-07-02T22:05:37;15.90;;;12.47;;
795;SDS011;381;48.770;9.188;2023-07-02T22:10:39;18.50;;;12.03;;
795;SDS011;381;48.770;9.188;2023-07-02T22:15:41;15.43;;;12.10;;
795;SDS011;381;48.770;9.188;2023-07-02T22:20:45;18.60;;;12.83;;
795;SDS011;381;48.770;9.188;2023-07-02T22:25:47;17.23;;;12.90;;
795;SDS011;381;48.770;9.188;2023-07-02T22:30:49;16.27;;;12.00;;
795;SDS011;381;48.770;9.188;2023-07-02T22:35:53;16.10;;;12.60;;
795;SDS011;381;48.770;9.188;2023-07-02T22:40:55;18.37;;;12.23;;
795;SDS011;381;48.770;9.188;2023-07-02T22:45:57;20.00;;;13.47;;
795;SDS011;381;48.770;9.188;2023-07-02T22:51:00;14.97;;;11.90;;
795;SDS011;381;48.770;9.188;2023-07-02T22:56:12;17.80;;;12.43;;
795;SDS011;381;48.770;9.188;2023-07-02T23:01:15;16.93;;;12.70;;
795;SDS011;381;48.770;9.188;2023-07-02T23:06:19;22.13;;;13.10;;
795;SDS011;381;48.770;9.188;2023-07-02T23:11:23;17.07;;;12.37;;
795;SDS011;381;48.770;9.188;2023-07-02T23:16:25;17.07;;;12.27;;
795;SDS011;381;48.770;9.188;2023-07-02T23:21:28;13.80;;;10.83;;
795;SDS011;381;48.770;9.188;2023-07-02T23:26:30;18.33;;;12.20;;
795;SDS011;381;48.770;9.188;2023-07-02T23:31:34;16.20;;;11.00;;
795;SDS011;381;48.770;9.188;2023-07-02T23:36:38;15.73;;;10.67;;
795;SDS011;381;48.770;9.188;2023-07-02T23:41:44;14.17;;;12.20;;
795;SDS011;381;48.770;9.188;2023-07-02T23:46:46;14.80;;;11.97;;
795;SDS011;381;48.770;9.188;2023-07-02T23:51:50;13.73;;;11.00;;
795;SDS011;381;48.770;9.188;2023-07-02T23:56:52;15.80;;;11.10;;
